PWSweather.com
Personal Weather Stations
Station Observations
LOBIOS
Galicia, LobiosES

GaliciaLobiosES

Lat: 41.895, Lon: -8.091667

Elevation: 1597

Station Type: Automática/Davis Vantage Pro2 Plus

Latest ConditionsUpdated 10:20:01 AM GMT+01:01 Monday, Jul 23, 2018
Currently Today's Max Today's Min Today's Average
Temperature 75.3°F24.1°C 75.3°F24.1°C 61.7°F16.5°C 65.9°F18.8°C
Dew Point 63.1°F17.3°C 63.1°F17.3°C 57.6°F14.2°C 59.8°F15.4°C
Winds 1.1 mph WSW1.8 kmh WSW 8.1 mph -13.0 kmh - - 1.9 mph 3.1 kmh
Wind Gusts 4.6 mph7.4 kmh 11.5 mph18.5 kmh - -
Humidity 66% 90% 65% 81%
Pressure 29.93 in1013.5 mb 29.96 in1014.6 mb 29.92 in1013.2 mb -
Hour Temp Dew Point Humidity Winds Wind Gusts Pressure Precip Precip Rate Daily Precip Total
10:20 AM 75.3°F24.1°C 63.1°F17.3°C 66% 1.1 mph WSW1.8 kmh WSW 4.6 mph7.4 kmh 29.93 in1013.5 mb - 0.00 in0.0 mm 0.00 in0.0 mm
10:10 AM 75.0°F23.9°C 62.9°F17.2°C 66% 5.8 mph SW9.3 kmh SW 8.1 mph13.0 kmh 29.93 in1013.5 mb - 0.00 in0.0 mm 0.00 in0.0 mm
10:00 AM 74.3°F23.5°C 61.8°F16.6°C 65% 1.1 mph WSW1.8 kmh WSW 5.8 mph9.3 kmh 29.93 in1013.5 mb - 0.00 in0.0 mm 0.00 in0.0 mm
09:50 AM 74.4°F23.6°C 63.1°F17.3°C 68% 3.5 mph WSW5.6 kmh WSW 6.9 mph11.1 kmh 29.93 in1013.5 mb - 0.00 in0.0 mm 0.00 in0.0 mm
09:40 AM 72.8°F22.7°C 62.0°F16.7°C 69% 4.6 mph SW7.4 kmh SW 8.1 mph13.0 kmh 29.94 in1013.9 mb - 0.00 in0.0 mm 0.00 in0.0 mm
09:30 AM 72.0°F22.2°C 61.7°F16.5°C 70% 3.5 mph SW5.6 kmh SW 4.6 mph7.4 kmh 29.93 in1013.5 mb - 0.00 in0.0 mm 0.00 in0.0 mm
09:20 AM 72.5°F22.5°C 62.5°F16.9°C 71% 3.5 mph SW5.6 kmh SW 4.6 mph7.4 kmh 29.93 in1013.5 mb - 0.00 in0.0 mm 0.00 in0.0 mm
09:10 AM 70.5°F21.4°C 61.5°F16.4°C 73% Calm Calm 1.1 mph1.8 kmh 29.93 in1013.5 mb - 0.00 in0.0 mm 0.00 in0.0 mm
09:00 AM 70.3°F21.3°C 61.2°F16.2°C 73% 3.5 mph SW5.6 kmh SW 4.6 mph7.4 kmh 29.93 in1013.5 mb - 0.00 in0.0 mm 0.00 in0.0 mm
08:50 AM 70.6°F21.4°C 61.1°F16.2°C 72% Calm Calm 1.1 mph1.8 kmh 29.93 in1013.5 mb - 0.00 in0.0 mm 0.00 in0.0 mm
08:40 AM 70.4°F21.3°C 60.9°F16.1°C 72% 1.1 mph ENE1.8 kmh ENE 1.1 mph1.8 kmh 29.93 in1013.5 mb - 0.00 in0.0 mm 0.00 in0.0 mm
08:30 AM 68.9°F20.5°C 60.7°F15.9°C 75% Calm Calm -- 29.93 in1013.5 mb - 0.00 in0.0 mm 0.00 in0.0 mm
08:20 AM 68.1°F20.1°C 59.5°F15.3°C 74% 3.5 mph SW5.6 kmh SW 4.6 mph7.4 kmh 29.93 in1013.5 mb - 0.00 in0.0 mm 0.00 in0.0 mm
08:10 AM 68.1°F20.1°C 59.9°F15.5°C 75% Calm Calm -- 29.93 in1013.5 mb - 0.00 in0.0 mm 0.00 in0.0 mm
08:00 AM 67.8°F19.9°C 60.0°F15.6°C 76% 4.6 mph NE7.4 kmh NE 6.9 mph11.1 kmh 29.93 in1013.5 mb - 0.00 in0.0 mm 0.00 in0.0 mm
07:50 AM 66.9°F19.4°C 59.8°F15.4°C 78% 1.1 mph NE1.8 kmh NE 4.6 mph7.4 kmh 29.94 in1013.9 mb - 0.00 in0.0 mm 0.00 in0.0 mm
07:40 AM 67.4°F19.7°C 59.2°F15.1°C 75% 1.1 mph NE1.8 kmh NE 1.1 mph1.8 kmh 29.93 in1013.5 mb - 0.00 in0.0 mm 0.00 in0.0 mm
07:30 AM 66.4°F19.1°C 59.0°F15.0°C 77% 5.8 mph NE9.3 kmh NE 5.8 mph9.3 kmh 29.93 in1013.5 mb - 0.00 in0.0 mm 0.00 in0.0 mm
07:20 AM 66.0°F18.9°C 58.9°F14.9°C 78% 4.6 mph NNE7.4 kmh NNE 4.6 mph7.4 kmh 29.93 in1013.5 mb - 0.00 in0.0 mm 0.00 in0.0 mm
07:10 AM 67.0°F19.4°C 58.0°F14.4°C 73% Calm Calm 1.1 mph1.8 kmh 29.93 in1013.5 mb - 0.00 in0.0 mm 0.00 in0.0 mm
07:00 AM 65.9°F18.8°C 58.5°F14.7°C 77% 1.1 mph ENE1.8 kmh ENE 2.3 mph3.7 kmh 29.93 in1013.5 mb - 0.00 in0.0 mm 0.00 in0.0 mm
06:50 AM 64.1°F17.8°C 58.1°F14.5°C 81% 8.1 mph NNE13.0 kmh NNE 11.5 mph18.5 kmh 29.93 in1013.5 mb - 0.00 in0.0 mm 0.00 in0.0 mm
06:40 AM 63.1°F17.3°C 57.9°F14.4°C 83% 5.8 mph NE9.3 kmh NE 8.1 mph13.0 kmh 29.93 in1013.5 mb - 0.00 in0.0 mm 0.00 in0.0 mm
06:30 AM 62.5°F16.9°C 57.6°F14.2°C 84% 4.6 mph NE7.4 kmh NE 4.6 mph7.4 kmh 29.92 in1013.2 mb - 0.00 in0.0 mm 0.00 in0.0 mm
06:20 AM 63.4°F17.4°C 57.8°F14.3°C 82% 3.5 mph E5.6 kmh E 5.8 mph9.3 kmh 29.92 in1013.2 mb - 0.00 in0.0 mm 0.00 in0.0 mm
06:10 AM 63.0°F17.2°C 58.1°F14.5°C 84% 1.1 mph NNE1.8 kmh NNE 3.5 mph5.6 kmh 29.92 in1013.2 mb - 0.00 in0.0 mm 0.00 in0.0 mm
06:00 AM 63.1°F17.3°C 58.2°F14.6°C 84% 4.6 mph NNE7.4 kmh NNE 8.1 mph13.0 kmh 29.92 in1013.2 mb - 0.00 in0.0 mm 0.00 in0.0 mm
05:50 AM 62.7°F17.1°C 58.4°F14.7°C 86% 8.1 mph N13.0 kmh N 11.5 mph18.5 kmh 29.92 in1013.2 mb - 0.00 in0.0 mm 0.00 in0.0 mm
05:40 AM 63.1°F17.3°C 58.5°F14.7°C 85% 5.8 mph E9.3 kmh E 6.9 mph11.1 kmh 29.92 in1013.2 mb - 0.00 in0.0 mm 0.00 in0.0 mm
05:30 AM 62.9°F17.2°C 58.6°F14.8°C 86% 8.1 mph N13.0 kmh N 11.5 mph18.5 kmh 29.92 in1013.2 mb - 0.00 in0.0 mm 0.00 in0.0 mm
05:20 AM 62.5°F16.9°C 58.6°F14.8°C 87% 1.1 mph NE1.8 kmh NE 5.8 mph9.3 kmh 29.92 in1013.2 mb - 0.00 in0.0 mm 0.00 in0.0 mm
05:10 AM 62.8°F17.1°C 59.2°F15.1°C 88% 2.3 mph ENE3.7 kmh ENE 3.5 mph5.6 kmh 29.92 in1013.2 mb - 0.00 in0.0 mm 0.00 in0.0 mm
05:00 AM 61.8°F16.6°C 58.5°F14.7°C 89% 2.3 mph ENE3.7 kmh ENE 5.8 mph9.3 kmh 29.92 in1013.2 mb - 0.00 in0.0 mm 0.00 in0.0 mm
04:50 AM 61.7°F16.5°C 58.4°F14.7°C 89% Calm Calm 2.3 mph3.7 kmh 29.93 in1013.5 mb - 0.00 in0.0 mm 0.00 in0.0 mm
04:40 AM 61.9°F16.6°C 58.6°F14.8°C 89% 3.5 mph NE5.6 kmh NE 4.6 mph7.4 kmh 29.92 in1013.2 mb - 0.00 in0.0 mm 0.00 in0.0 mm
04:30 AM 61.7°F16.5°C 58.4°F14.7°C 89% Calm Calm -- 29.93 in1013.5 mb - 0.00 in0.0 mm 0.00 in0.0 mm
04:20 AM 62.3°F16.8°C 59.4°F15.2°C 90% Calm Calm -- 29.93 in1013.5 mb - 0.00 in0.0 mm 0.00 in0.0 mm
04:10 AM 62.3°F16.8°C 59.0°F15.0°C 89% Calm Calm -- 29.93 in1013.5 mb - 0.00 in0.0 mm 0.00 in0.0 mm
04:00 AM 62.7°F17.1°C 59.4°F15.2°C 89% 1.1 mph NE1.8 kmh NE 3.5 mph5.6 kmh 29.93 in1013.5 mb - 0.00 in0.0 mm 0.00 in0.0 mm
03:50 AM 63.0°F17.2°C 59.4°F15.2°C 88% Calm Calm 1.1 mph1.8 kmh 29.94 in1013.9 mb - 0.00 in0.0 mm 0.00 in0.0 mm
03:40 AM 62.8°F17.1°C 59.2°F15.1°C 88% Calm Calm -- 29.93 in1013.5 mb - 0.00 in0.0 mm 0.00 in0.0 mm
03:30 AM 62.9°F17.2°C 59.0°F15.0°C 87% Calm Calm -- 29.94 in1013.9 mb - 0.00 in0.0 mm 0.00 in0.0 mm
03:20 AM 63.0°F17.2°C 59.4°F15.2°C 88% 1.1 mph NE1.8 kmh NE 2.3 mph3.7 kmh 29.94 in1013.9 mb - 0.00 in0.0 mm 0.00 in0.0 mm
03:10 AM 63.2°F17.3°C 59.5°F15.3°C 88% Calm Calm 1.1 mph1.8 kmh 29.94 in1013.9 mb - 0.00 in0.0 mm 0.00 in0.0 mm
03:00 AM 63.1°F17.3°C 59.5°F15.3°C 88% Calm Calm 1.1 mph1.8 kmh 29.94 in1013.9 mb - 0.00 in0.0 mm 0.00 in0.0 mm
02:50 AM 63.3°F17.4°C 59.4°F15.2°C 87% Calm Calm -- 29.95 in1014.2 mb - 0.00 in0.0 mm 0.00 in0.0 mm
02:40 AM 63.4°F17.4°C 59.1°F15.1°C 86% Calm Calm -- 29.95 in1014.2 mb - 0.00 in0.0 mm 0.00 in0.0 mm
02:30 AM 63.6°F17.6°C 60.0°F15.6°C 88% Calm Calm -- 29.95 in1014.2 mb - 0.00 in0.0 mm 0.00 in0.0 mm
02:20 AM 63.4°F17.4°C 59.5°F15.3°C 87% Calm Calm -- 29.95 in1014.2 mb - 0.00 in0.0 mm 0.00 in0.0 mm
02:10 AM 63.4°F17.4°C 59.5°F15.3°C 87% Calm Calm -- 29.95 in1014.2 mb - 0.00 in0.0 mm 0.00 in0.0 mm
02:00 AM 63.9°F17.7°C 59.6°F15.3°C 86% Calm Calm -- 29.95 in1014.2 mb - 0.00 in0.0 mm 0.00 in0.0 mm
01:50 AM 64.4°F18.0°C 59.8°F15.4°C 85% Calm Calm 1.1 mph1.8 kmh 29.95 in1014.2 mb - 0.00 in0.0 mm 0.00 in0.0 mm
01:40 AM 65.0°F18.3°C 60.0°F15.6°C 84% Calm Calm 1.1 mph1.8 kmh 29.95 in1014.2 mb - 0.00 in0.0 mm 0.00 in0.0 mm
01:30 AM 65.8°F18.8°C 60.5°F15.8°C 83% Calm Calm 1.1 mph1.8 kmh 29.96 in1014.6 mb - 0.00 in0.0 mm 0.00 in0.0 mm
01:20 AM 66.0°F18.9°C 61.0°F16.1°C 84% 3.5 mph NE5.6 kmh NE 4.6 mph7.4 kmh 29.96 in1014.6 mb - 0.00 in0.0 mm 0.00 in0.0 mm
01:10 AM 65.6°F18.7°C 60.6°F15.9°C 84% Calm Calm -- 29.96 in1014.6 mb - 0.00 in0.0 mm 0.00 in0.0 mm
01:00 AM 65.9°F18.8°C 60.3°F15.7°C 82% Calm Calm -- 29.96 in1014.6 mb - 0.00 in0.0 mm 0.00 in0.0 mm
12:50 AM 66.2°F19.0°C 60.5°F15.8°C 82% Calm Calm 1.1 mph1.8 kmh 29.96 in1014.6 mb - 0.00 in0.0 mm 0.00 in0.0 mm
12:40 AM 66.4°F19.1°C 60.7°F15.9°C 82% Calm Calm -- 29.96 in1014.6 mb - 0.00 in0.0 mm 0.00 in0.0 mm
12:30 AM 66.7°F19.3°C 60.7°F15.9°C 81% 2.3 mph E3.7 kmh E 3.5 mph5.6 kmh 29.96 in1014.6 mb - 0.00 in0.0 mm 0.00 in0.0 mm
12:20 AM 66.8°F19.3°C 60.8°F16.0°C 81% 2.3 mph E3.7 kmh E 3.5 mph5.6 kmh 29.96 in1014.6 mb - 0.00 in0.0 mm 0.00 in0.0 mm
12:10 AM 67.0°F19.4°C 61.0°F16.1°C 81% Calm Calm -- 29.96 in1014.6 mb - 0.00 in0.0 mm 0.00 in0.0 mm
12:00 AM 66.5°F19.2°C 60.5°F15.8°C 81% 1.1 mph E1.8 kmh E 2.3 mph3.7 kmh 29.96 in1014.6 mb - 0.00 in0.0 mm 0.00 in0.0 mm